Time;durP1;ratioP1;P1;durP2;ratioP2;P2;SDS_P1;SDS_P2;PMS_P1;PMS_P2;Temp;Humidity;BMP_temperature;BMP_pressure;BME280_temperature;BME280_humidity;BME280_pressure;Samples;Min_cycle;Max_cycle;Signal;HPM_P1;HPM_P2
2021/06/08 00:01:40;;;;;;;8.55;6.45;;;;;;;;;;5055265;28;20029;-66
2021/06/08 00:04:05;;;;;;;7.57;6.15;;;;;;;;;;5073778;28;20044;-65
2021/06/08 00:06:31;;;;;;;7.90;6.15;;;;;;;;;;5058539;28;20028;-65
2021/06/08 00:08:56;;;;;;;7.55;5.97;;;;;;;;;;5032197;28;20487;-65
2021/06/08 00:11:21;;;;;;;8.90;6.25;;;;;;;;;;5073901;28;20594;-65
2021/06/08 00:13:50;;;;;;;7.35;5.82;;;;;;;;;;5072526;28;20446;-66
2021/06/08 00:16:16;;;;;;;6.68;5.65;;;;;;;;;;5074756;28;20033;-65
2021/06/08 00:18:41;;;;;;;7.88;6.22;;;;;;;;;;5054987;28;20531;-65
2021/06/08 00:21:07;;;;;;;7.82;6.57;;;;;;;;;;5055473;28;20511;-65
2021/06/08 00:23:33;;;;;;;7.47;6.45;;;;;;;;;;5056064;28;22803;-65
2021/06/08 00:25:59;;;;;;;7.55;6.28;;;;;;;;;;5065125;28;20052;-66
2021/06/08 00:28:24;;;;;;;7.45;6.45;;;;;;;;;;5074167;28;20508;-67
2021/06/08 00:30:50;;;;;;;7.10;5.93;;;;;;;;;;5072448;28;20127;-65
2021/06/08 00:33:16;;;;;;;7.65;5.82;;;;;;;;;;5074556;28;20032;-66
2021/06/08 00:35:41;;;;;;;7.75;6.43;;;;;;;;;;5074175;28;20048;-66
2021/06/08 00:38:07;;;;;;;8.52;6.78;;;;;;;;;;5023565;28;20072;-66
2021/06/08 00:40:32;;;;;;;7.72;6.53;;;;;;;;;;5065080;28;20041;-67
2021/06/08 00:42:58;;;;;;;8.25;6.57;;;;;;;;;;5072339;28;20032;-67
2021/06/08 00:45:23;;;;;;;7.55;5.93;;;;;;;;;;5073045;28;20682;-66
2021/06/08 00:47:49;;;;;;;8.18;6.40;;;;;;;;;;5071784;28;20095;-66
2021/06/08 00:50:15;;;;;;;8.20;6.45;;;;;;;;;;5054681;28;20048;-67
2021/06/08 00:52:40;;;;;;;7.85;5.97;;;;;;;;;;5054454;28;20087;-66
2021/06/08 00:55:09;;;;;;;7.47;6.10;;;;;;;;;;5053120;28;20036;-66
2021/06/08 00:57:34;;;;;;;7.05;5.88;;;;;;;;;;5072473;28;20048;-66
2021/06/08 01:00:00;;;;;;;7.55;6.20;;;;;;;;;;5073214;28;20043;-66
2021/06/08 01:02:25;;;;;;;7.57;5.97;;;;;;;;;;5072404;28;20029;-66
2021/06/08 01:04:51;;;;;;;8.07;6.45;;;;;;;;;;5062767;28;20051;-66
2021/06/08 01:07:16;;;;;;;7.22;5.97;;;;;;;;;;5057707;28;20052;-66
2021/06/08 01:09:41;;;;;;;8.10;6.35;;;;;;;;;;5055315;28;20041;-66
2021/06/08 01:12:08;;;;;;;8.25;6.32;;;;;;;;;;5063882;28;20087;-66
2021/06/08 01:14:33;;;;;;;7.35;6.10;;;;;;;;;;5071407;28;20630;-65
2021/06/08 01:16:59;;;;;;;8.45;6.78;;;;;;;;;;5071017;28;20051;-66
2021/06/08 01:19:24;;;;;;;9.10;6.60;;;;;;;;;;5041502;28;20045;-66
2021/06/08 01:21:49;;;;;;;8.00;6.47;;;;;;;;;;5053661;28;20047;-66
2021/06/08 01:24:15;;;;;;;9.25;6.28;;;;;;;;;;5054761;28;20921;-65
2021/06/08 01:26:40;;;;;;;8.02;6.30;;;;;;;;;;5072618;28;20029;-67
2021/06/08 01:29:06;;;;;;;8.25;6.25;;;;;;;;;;5045317;28;20106;-66
2021/06/08 01:31:33;;;;;;;7.55;5.70;;;;;;;;;;5072491;28;20035;-66
2021/06/08 01:33:59;;;;;;;7.70;5.90;;;;;;;;;;5072082;28;20033;-66
2021/06/08 01:36:27;;;;;;;8.25;6.10;;;;;;;;;;5051996;28;20044;-66
2021/06/08 01:38:52;;;;;;;8.45;6.43;;;;;;;;;;5053021;28;20076;-66
2021/06/08 01:41:23;;;;;;;8.88;5.95;;;;;;;;;;5054372;28;20396;-66
2021/06/08 01:43:49;;;;;;;8.75;5.93;;;;;;;;;;5053743;28;20048;-66
2021/06/08 01:46:15;;;;;;;8.07;6.32;;;;;;;;;;5050515;28;20040;-66
2021/06/08 01:48:41;;;;;;;7.40;5.80;;;;;;;;;;5072688;28;20033;-66
2021/06/08 01:51:43;;;;;;;8.07;5.97;;;;;;;;;;5072109;28;20527;-66
2021/06/08 01:54:21;;;;;;;;;;;;;;;;;;5043919;28;20060;-66
2021/06/08 01:56:47;;;;;;;7.57;6.07;;;;;;;;;;5053771;28;19924;-66
2021/06/08 01:59:27;;;;;;;7.85;6.30;;;;;;;;;;5040321;28;20032;-66
2021/06/08 02:02:00;;;;;;;9.05;6.55;;;;;;;;;;5062641;28;20611;-66
2021/06/08 02:04:28;;;;;;;6.57;5.55;;;;;;;;;;5054890;28;20125;-66
2021/06/08 02:07:24;;;;;;;7.43;5.65;;;;;;;;;;5038676;28;20039;-66
2021/06/08 02:09:58;;;;;;;7.85;5.82;;;;;;;;;;5045445;28;20499;-66
2021/06/08 02:12:23;;;;;;;7.68;5.97;;;;;;;;;;5053467;28;20893;-66
2021/06/08 02:14:58;;;;;;;7.85;5.88;;;;;;;;;;5070552;28;20029;-66
2021/06/08 02:17:39;;;;;;;7.07;5.53;;;;;;;;;;5069586;28;20138;-65
2021/06/08 02:20:10;;;;;;;7.05;5.32;;;;;;;;;;5056091;28;20551;-66
2021/06/08 02:22:37;;;;;;;6.93;5.38;;;;;;;;;;5038053;28;20033;-66
2021/06/08 02:25:03;;;;;;;7.05;5.20;;;;;;;;;;5053656;28;21233;-66
2021/06/08 02:27:29;;;;;;;6.63;5.07;;;;;;;;;;5052868;28;20057;-66
2021/06/08 02:29:54;;;;;;;6.63;5.20;;;;;;;;;;5069796;28;20033;-66
2021/06/08 02:32:20;;;;;;;6.88;5.25;;;;;;;;;;5043555;28;20059;-66
2021/06/08 02:34:45;;;;;;;6.88;4.78;;;;;;;;;;5051982;28;20061;-66
2021/06/08 02:37:12;;;;;;;6.05;4.43;;;;;;;;;;5052342;28;20041;-65
2021/06/08 02:39:40;;;;;;;5.80;4.55;;;;;;;;;;5071919;28;20041;-65
2021/06/08 02:42:07;;;;;;;6.55;5.25;;;;;;;;;;5035871;28;20033;-66
2021/06/08 02:44:33;;;;;;;6.38;5.35;;;;;;;;;;5056483;28;20029;-66
2021/06/08 02:46:58;;;;;;;6.50;5.13;;;;;;;;;;5052748;28;20029;-66
2021/06/08 02:49:24;;;;;;;6.22;4.80;;;;;;;;;;5053646;28;20755;-66
2021/06/08 02:51:49;;;;;;;5.95;4.72;;;;;;;;;;5053548;28;20401;-66
2021/06/08 02:54:15;;;;;;;7.40;5.30;;;;;;;;;;5052580;28;20438;-66
2021/06/08 02:56:41;;;;;;;6.05;5.05;;;;;;;;;;5038778;28;20040;-66
2021/06/08 02:59:06;;;;;;;7.55;5.97;;;;;;;;;;5052340;28;20033;-66
2021/06/08 03:01:32;;;;;;;8.60;6.10;;;;;;;;;;5069791;28;20594;-66
2021/06/08 03:03:58;;;;;;;7.85;6.07;;;;;;;;;;5051118;28;20029;-66
2021/06/08 03:06:26;;;;;;;8.60;6.03;;;;;;;;;;5052812;28;20534;-66
2021/06/08 03:09:01;;;;;;;7.57;5.82;;;;;;;;;;5029672;28;20143;-66
2021/06/08 03:11:28;;;;;;;8.00;6.40;;;;;;;;;;5072068;28;20079;-65
2021/06/08 03:13:54;;;;;;;7.68;6.00;;;;;;;;;;5054083;28;20068;-66
2021/06/08 03:16:19;;;;;;;8.07;6.15;;;;;;;;;;5036891;28;20045;-66
2021/06/08 03:18:46;;;;;;;9.10;6.05;;;;;;;;;;5054218;28;20116;-66
2021/06/08 03:21:18;;;;;;;7.63;5.95;;;;;;;;;;5048279;28;20029;-66
2021/06/08 03:23:50;;;;;;;8.32;6.50;;;;;;;;;;5056116;28;20033;-66
2021/06/08 03:26:16;;;;;;;7.72;6.38;;;;;;;;;;5033717;28;20404;-66
2021/06/08 03:28:42;;;;;;;7.70;6.18;;;;;;;;;;5051554;28;20033;-66
2021/06/08 03:31:07;;;;;;;8.50;6.65;;;;;;;;;;5053793;28;20044;-66
2021/06/08 03:33:33;;;;;;;7.95;6.50;;;;;;;;;;5054925;28;20143;-66
2021/06/08 03:35:58;;;;;;;7.93;5.97;;;;;;;;;;5039732;28;20040;-66
2021/06/08 03:38:24;;;;;;;7.65;6.15;;;;;;;;;;5075553;28;20045;-66
2021/06/08 03:40:51;;;;;;;8.20;6.00;;;;;;;;;;5056716;28;20055;-66
2021/06/08 03:43:16;;;;;;;7.68;5.88;;;;;;;;;;5056728;28;20029;-66
2021/06/08 03:45:42;;;;;;;7.75;6.30;;;;;;;;;;5038029;28;20037;-66
2021/06/08 03:48:07;;;;;;;8.18;5.82;;;;;;;;;;5074670;28;20033;-66
2021/06/08 03:50:33;;;;;;;8.05;6.50;;;;;;;;;;5040087;28;20512;-66
2021/06/08 03:53:01;;;;;;;7.28;6.00;;;;;;;;;;5048228;28;20033;-66
2021/06/08 03:55:27;;;;;;;7.07;5.60;;;;;;;;;;5039144;28;20596;-66
2021/06/08 03:57:54;;;;;;;7.95;6.00;;;;;;;;;;5071684;28;20122;-66
2021/06/08 04:00:24;;;;;;;8.68;6.05;;;;;;;;;;5073493;28;20025;-66
2021/06/08 04:02:50;;;;;;;8.32;6.38;;;;;;;;;;5072395;28;20041;-66
2021/06/08 04:05:15;;;;;;;7.28;6.00;;;;;;;;;;5051401;28;20032;-65
2021/06/08 04:07:42;;;;;;;8.70;6.13;;;;;;;;;;5073621;28;20067;-66
2021/06/08 04:10:09;;;;;;;6.97;5.55;;;;;;;;;;5056288;28;20103;-66
2021/06/08 04:12:35;;;;;;;7.15;5.57;;;;;;;;;;5064482;28;20474;-66
2021/06/08 04:15:03;;;;;;;7.80;5.57;;;;;;;;;;5037071;28;20024;-66
2021/06/08 04:17:30;;;;;;;7.78;5.70;;;;;;;;;;5070836;28;20072;-66
2021/06/08 04:19:56;;;;;;;7.72;5.68;;;;;;;;;;5048338;28;20037;-66
2021/06/08 04:22:40;;;;;;;7.18;5.53;;;;;;;;;;5055877;28;30341;-67
2021/06/08 04:25:07;;;;;;;8.23;5.70;;;;;;;;;;5043446;28;20037;-66
2021/06/08 04:27:34;;;;;;;7.85;5.55;;;;;;;;;;5072847;28;20038;-66
2021/06/08 04:30:00;;;;;;;7.10;5.32;;;;;;;;;;5072275;28;20116;-66
2021/06/08 04:32:25;;;;;;;6.38;5.03;;;;;;;;;;5056127;28;20029;-66
2021/06/08 04:34:51;;;;;;;7.43;5.30;;;;;;;;;;5057790;28;20485;-66
2021/06/08 04:37:17;;;;;;;6.60;5.20;;;;;;;;;;5053316;28;20044;-66
2021/06/08 04:39:43;;;;;;;7.50;5.45;;;;;;;;;;5057380;28;20037;-66
2021/06/08 04:42:09;;;;;;;8.10;5.00;;;;;;;;;;5072633;28;20047;-66
2021/06/08 04:44:35;;;;;;;5.38;4.40;;;;;;;;;;5054836;28;20044;-66
2021/06/08 04:47:00;;;;;;;5.65;4.53;;;;;;;;;;5055205;28;20037;-66
2021/06/08 04:49:26;;;;;;;6.05;4.43;;;;;;;;;;5071442;28;20425;-66
2021/06/08 04:51:51;;;;;;;5.82;4.43;;;;;;;;;;5038726;28;20040;-66
2021/06/08 04:54:23;;;;;;;7.28;4.70;;;;;;;;;;5039607;28;20021;-66
2021/06/08 04:56:49;;;;;;;5.45;4.13;;;;;;;;;;5053919;28;20422;-66
2021/06/08 04:59:20;;;;;;;6.55;4.45;;;;;;;;;;5057273;28;20036;-66
2021/06/08 05:01:46;;;;;;;;;;;;;;;;;;5055018;28;20131;-66
2021/06/08 05:04:11;;;;;;;5.70;4.35;;;;;;;;;;5055994;28;19944;-66
2021/06/08 05:06:40;;;;;;;6.53;4.53;;;;;;;;;;5037421;28;20037;-65
2021/06/08 05:09:10;;;;;;;6.05;4.72;;;;;;;;;;5056297;28;20604;-66
2021/06/08 05:11:52;;;;;;;6.07;4.45;;;;;;;;;;5039673;28;20860;-66
2021/06/08 05:14:18;;;;;;;6.13;4.57;;;;;;;;;;5057995;28;20112;-66
2021/06/08 05:16:44;;;;;;;6.13;4.50;;;;;;;;;;5072590;28;20052;-66
2021/06/08 05:19:11;;;;;;;7.30;4.85;;;;;;;;;;5036386;28;20037;-67
2021/06/08 05:21:37;;;;;;;6.07;4.72;;;;;;;;;;5053568;28;20087;-66
2021/06/08 05:24:03;;;;;;;6.15;4.72;;;;;;;;;;5039372;28;20705;-66
2021/06/08 05:26:29;;;;;;;6.03;4.70;;;;;;;;;;5036181;28;20031;-66
2021/06/08 05:28:54;;;;;;;7.22;4.85;;;;;;;;;;5073895;28;20408;-66
2021/06/08 05:31:20;;;;;;;6.80;5.05;;;;;;;;;;5024365;28;20037;-66
2021/06/08 05:33:46;;;;;;;6.43;4.47;;;;;;;;;;5070340;28;20071;-67
2021/06/08 05:36:12;;;;;;;6.93;4.57;;;;;;;;;;5070755;28;20042;-66
2021/06/08 05:38:38;;;;;;;7.00;4.57;;;;;;;;;;5053383;28;20467;-66
2021/06/08 05:41:05;;;;;;;6.90;5.10;;;;;;;;;;5062896;28;20414;-67
2021/06/08 05:43:30;;;;;;;7.03;5.25;;;;;;;;;;5055981;28;20048;-66
2021/06/08 05:45:56;;;;;;;6.53;4.97;;;;;;;;;;5055142;28;20039;-66
2021/06/08 05:48:22;;;;;;;5.72;4.57;;;;;;;;;;5071296;28;20529;-66
2021/06/08 05:50:48;;;;;;;7.10;4.93;;;;;;;;;;5019480;28;20044;-67
2021/06/08 05:53:15;;;;;;;8.05;4.85;;;;;;;;;;5052928;28;20522;-66
2021/06/08 05:55:41;;;;;;;6.93;5.10;;;;;;;;;;5052952;28;20052;-66
2021/06/08 05:58:08;;;;;;;6.93;5.30;;;;;;;;;;5037010;28;20048;-66
2021/06/08 06:00:33;;;;;;;7.10;5.15;;;;;;;;;;5071128;28;20799;-66
2021/06/08 06:02:59;;;;;;;6.30;4.97;;;;;;;;;;5052572;28;20045;-66
2021/06/08 06:05:25;;;;;;;7.97;5.25;;;;;;;;;;5053028;28;20036;-66
2021/06/08 06:07:50;;;;;;;7.53;5.57;;;;;;;;;;5052885;28;20036;-66
2021/06/08 06:10:16;;;;;;;6.47;4.78;;;;;;;;;;5037823;28;20044;-66
2021/06/08 06:12:41;;;;;;;8.07;5.78;;;;;;;;;;5071316;28;20072;-66
2021/06/08 06:15:08;;;;;;;7.75;5.35;;;;;;;;;;5046623;28;20029;-66
2021/06/08 06:17:38;;;;;;;7.32;5.65;;;;;;;;;;5038121;28;20489;-66
2021/06/08 06:20:11;;;;;;;7.28;5.32;;;;;;;;;;5045773;28;20064;-66
2021/06/08 06:22:37;;;;;;;6.85;5.25;;;;;;;;;;5072318;28;20485;-66
2021/06/08 06:25:08;;;;;;;7.05;5.07;;;;;;;;;;5052279;28;20020;-66
2021/06/08 06:27:34;;;;;;;6.80;5.40;;;;;;;;;;5055528;28;20041;-66
2021/06/08 06:30:00;;;;;;;8.25;5.70;;;;;;;;;;5034159;28;20071;-66
2021/06/08 06:32:25;;;;;;;7.47;5.28;;;;;;;;;;5036898;28;20044;-66
2021/06/08 06:34:51;;;;;;;6.70;5.30;;;;;;;;;;5046577;28;20028;-66
2021/06/08 06:37:20;;;;;;;7.53;5.35;;;;;;;;;;5053564;28;20047;-66
2021/06/08 06:39:46;;;;;;;6.55;5.03;;;;;;;;;;5052744;28;20037;-66
2021/06/08 06:42:13;;;;;;;6.93;5.30;;;;;;;;;;5038239;28;20041;-66
2021/06/08 06:44:39;;;;;;;8.50;5.40;;;;;;;;;;5053259;28;20381;-65
2021/06/08 06:47:05;;;;;;;7.50;5.72;;;;;;;;;;5054044;28;20037;-64
2021/06/08 06:49:30;;;;;;;6.80;5.40;;;;;;;;;;5052562;28;20041;-65
2021/06/08 06:51:56;;;;;;;7.07;5.03;;;;;;;;;;5072434;28;20025;-64
2021/06/08 06:54:23;;;;;;;7.50;5.13;;;;;;;;;;5038277;28;20445;-64
2021/06/08 06:56:48;;;;;;;6.72;5.38;;;;;;;;;;5070013;28;20036;-64
2021/06/08 06:59:14;;;;;;;6.65;5.10;;;;;;;;;;5053438;28;20037;-65
2021/06/08 07:01:41;;;;;;;6.97;5.20;;;;;;;;;;5070399;28;20041;-64
2021/06/08 07:04:06;;;;;;;7.57;5.45;;;;;;;;;;5035743;28;20508;-64
2021/06/08 07:06:32;;;;;;;7.28;5.63;;;;;;;;;;5048154;28;20035;-65
2021/06/08 07:08:58;;;;;;;7.53;5.60;;;;;;;;;;5035915;28;20404;-64
2021/06/08 07:11:24;;;;;;;7.72;5.75;;;;;;;;;;5037949;28;20099;-64
2021/06/08 07:13:49;;;;;;;8.80;6.05;;;;;;;;;;5069916;28;20037;-65
2021/06/08 07:16:15;;;;;;;7.30;5.43;;;;;;;;;;5068023;28;20047;-65
2021/06/08 07:18:41;;;;;;;8.05;6.13;;;;;;;;;;5071254;28;20025;-64
2021/06/08 07:21:07;;;;;;;7.18;5.47;;;;;;;;;;5053326;28;20036;-65
2021/06/08 07:23:33;;;;;;;8.80;5.60;;;;;;;;;;5070978;28;20033;-64
2021/06/08 07:25:59;;;;;;;8.43;6.30;;;;;;;;;;5032192;28;20504;-65
2021/06/08 07:28:24;;;;;;;7.40;5.80;;;;;;;;;;5071509;28;20122;-65
2021/06/08 07:30:50;;;;;;;8.30;5.75;;;;;;;;;;5053225;28;20700;-64
2021/06/08 07:33:47;;;;;;;7.55;5.60;;;;;;;;;;5052458;28;20059;-64
2021/06/08 07:36:21;;;;;;;8.32;5.82;;;;;;;;;;5049692;28;20532;-65
2021/06/08 07:39:11;;;;;;;8.00;5.90;;;;;;;;;;5053440;28;20025;-65
2021/06/08 07:41:44;;;;;;;8.55;5.35;;;;;;;;;;5037010;28;20053;-64
2021/06/08 07:44:32;;;;;;;7.75;5.43;;;;;;;;;;5045074;28;20029;-67
2021/06/08 07:47:01;;;;;;;7.57;5.93;;;;;;;;;;5070580;28;20402;-66
2021/06/08 07:49:27;;;;;;;7.32;5.50;;;;;;;;;;5038327;28;20039;-67
2021/06/08 07:51:53;;;;;;;6.85;5.40;;;;;;;;;;5058036;28;20044;-66
2021/06/08 07:54:21;;;;;;;9.63;6.20;;;;;;;;;;5050021;28;20087;-66
2021/06/08 07:56:46;;;;;;;7.50;5.43;;;;;;;;;;5052553;28;20052;-67
2021/06/08 07:59:14;;;;;;;6.75;5.32;;;;;;;;;;5053019;28;20040;-67
2021/06/08 08:01:39;;;;;;;7.63;5.82;;;;;;;;;;5053172;28;20163;-67
2021/06/08 08:04:09;;;;;;;7.72;5.70;;;;;;;;;;5070711;28;20486;-66
2021/06/08 08:06:34;;;;;;;7.20;5.38;;;;;;;;;;5053835;28;20082;-67
2021/06/08 08:09:02;;;;;;;8.27;5.80;;;;;;;;;;5051478;28;20519;-67
2021/06/08 08:11:28;;;;;;;7.85;5.57;;;;;;;;;;5052753;28;20033;-67
2021/06/08 08:13:53;;;;;;;7.10;5.43;;;;;;;;;;5035232;28;20484;-67
2021/06/08 08:16:19;;;;;;;7.65;6.10;;;;;;;;;;5024582;28;20063;-67
2021/06/08 08:18:45;;;;;;;8.40;5.93;;;;;;;;;;5058043;28;20025;-64
2021/06/08 08:21:15;;;;;;;7.05;5.47;;;;;;;;;;5055749;28;20041;-67
2021/06/08 08:23:41;;;;;;;9.25;6.45;;;;;;;;;;5062592;28;20048;-67
2021/06/08 08:26:08;;;;;;;7.93;5.72;;;;;;;;;;5051331;28;20335;-65
2021/06/08 08:28:34;;;;;;;7.95;5.70;;;;;;;;;;5054675;28;20037;-66
2021/06/08 08:31:00;;;;;;;6.85;5.32;;;;;;;;;;5072717;28;20033;-66
2021/06/08 08:33:27;;;;;;;7.38;5.80;;;;;;;;;;5053900;28;20611;-66
2021/06/08 08:35:52;;;;;;;8.15;5.65;;;;;;;;;;5055642;28;20037;-66
2021/06/08 08:38:18;;;;;;;8.68;5.68;;;;;;;;;;5074521;28;20029;-67
2021/06/08 08:40:43;;;;;;;7.38;5.22;;;;;;;;;;5053198;28;20051;-66
2021/06/08 08:43:09;;;;;;;7.85;5.88;;;;;;;;;;5056088;28;20041;-66
2021/06/08 08:45:34;;;;;;;8.43;5.70;;;;;;;;;;5044563;28;20032;-66
2021/06/08 08:48:00;;;;;;;8.45;5.82;;;;;;;;;;5073284;28;20114;-69
2021/06/08 08:50:26;;;;;;;7.90;5.43;;;;;;;;;;5038508;28;20039;-61
2021/06/08 08:52:58;;;;;;;8.32;5.90;;;;;;;;;;5073989;28;20116;-61
2021/06/08 08:55:24;;;;;;;;;;;;;;;;;;5054900;28;20037;-61
2021/06/08 08:57:49;;;;;;;7.97;5.55;;;;;;;;;;5055086;28;19920;-61
2021/06/08 09:00:15;;;;;;;7.00;5.15;;;;;;;;;;5073520;28;20496;-61
2021/06/08 09:02:40;;;;;;;7.65;5.82;;;;;;;;;;5074010;28;20596;-61
2021/06/08 09:05:06;;;;;;;8.65;5.60;;;;;;;;;;5041726;28;20025;-61
2021/06/08 09:07:32;;;;;;;8.23;5.75;;;;;;;;;;5072466;28;20509;-61
2021/06/08 09:09:57;;;;;;;8.15;6.10;;;;;;;;;;5055407;28;20033;-61
2021/06/08 09:12:23;;;;;;;8.40;5.82;;;;;;;;;;5071801;28;20033;-61
2021/06/08 09:14:48;;;;;;;7.82;5.38;;;;;;;;;;5053284;28;20028;-61
2021/06/08 09:17:16;;;;;;;8.93;5.97;;;;;;;;;;5053735;28;20053;-61
2021/06/08 09:19:42;;;;;;;8.13;5.88;;;;;;;;;;5056903;28;20124;-61
2021/06/08 09:22:10;;;;;;;6.80;5.07;;;;;;;;;;5037541;28;20107;-60
2021/06/08 09:24:35;;;;;;;7.40;5.30;;;;;;;;;;5037436;28;20032;-61
2021/06/08 09:27:05;;;;;;;8.38;5.53;;;;;;;;;;5055712;28;20038;-61
2021/06/08 09:29:40;;;;;;;8.15;5.72;;;;;;;;;;5071286;28;20036;-61
2021/06/08 09:32:15;;;;;;;8.35;5.82;;;;;;;;;;5071872;28;20090;-62
2021/06/08 09:35:00;;;;;;;8.85;5.53;;;;;;;;;;5071567;28;20218;-61
2021/06/08 09:37:38;;;;;;;8.13;5.40;;;;;;;;;;5054946;28;20175;-60
2021/06/08 09:40:21;;;;;;;7.75;5.63;;;;;;;;;;5075030;28;20033;-61
2021/06/08 09:42:50;;;;;;;7.47;5.70;;;;;;;;;;5053167;28;20098;-61
2021/06/08 09:45:23;;;;;;;8.70;5.85;;;;;;;;;;5039727;28;20614;-61
2021/06/08 09:47:58;;;;;;;9.68;6.38;;;;;;;;;;5053058;28;20425;-61
2021/06/08 09:50:28;;;;;;;8.60;5.93;;;;;;;;;;5072219;28;20047;-60
2021/06/08 09:53:15;;;;;;;8.52;6.18;;;;;;;;;;5057496;28;20033;-61
2021/06/08 09:55:51;;;;;;;7.20;5.60;;;;;;;;;;5072016;28;20037;-61
2021/06/08 09:58:17;;;;;;;8.30;6.18;;;;;;;;;;5057379;28;20044;-61
2021/06/08 10:00:42;;;;;;;9.13;5.95;;;;;;;;;;5053828;28;20135;-60
2021/06/08 10:03:08;;;;;;;9.23;6.50;;;;;;;;;;5054466;28;20039;-61
2021/06/08 10:05:34;;;;;;;7.18;5.53;;;;;;;;;;5071131;28;20032;-60
2021/06/08 10:08:03;;;;;;;8.43;6.35;;;;;;;;;;5055552;28;20476;-60
2021/06/08 10:10:44;;;;;;;9.68;6.82;;;;;;;;;;5071815;28;20041;-61
2021/06/08 10:13:10;;;;;;;9.57;7.15;;;;;;;;;;5049314;28;20575;-60
2021/06/08 10:15:52;;;;;;;11.18;8.02;;;;;;;;;;5073032;28;20178;-60
2021/06/08 10:18:18;;;;;;;9.05;6.97;;;;;;;;;;5072109;28;20497;-61
2021/06/08 10:20:53;;;;;;;10.40;8.02;;;;;;;;;;5055051;28;20028;-61
2021/06/08 10:23:32;;;;;;;9.70;7.00;;;;;;;;;;5062880;28;20043;-61
2021/06/08 10:25:59;;;;;;;9.18;7.07;;;;;;;;;;5070705;28;20044;-60
2021/06/08 10:28:25;;;;;;;9.52;7.20;;;;;;;;;;5055428;28;20036;-61
2021/06/08 10:30:50;;;;;;;9.73;7.50;;;;;;;;;;5071375;28;21415;-60
2021/06/08 10:33:16;;;;;;;11.35;7.68;;;;;;;;;;5054329;28;20715;-61
2021/06/08 10:35:42;;;;;;;10.23;7.35;;;;;;;;;;5051409;28;20045;-60
2021/06/08 10:38:08;;;;;;;10.57;7.82;;;;;;;;;;5041930;28;20167;-60
2021/06/08 10:40:34;;;;;;;9.65;7.30;;;;;;;;;;5053331;28;20040;-61
2021/06/08 10:43:00;;;;;;;10.32;7.90;;;;;;;;;;5071019;28;20039;-61
2021/06/08 10:45:36;;;;;;;10.18;7.20;;;;;;;;;;5035795;28;20124;-60
2021/06/08 10:48:22;;;;;;;11.15;7.95;;;;;;;;;;5053421;28;20042;-60
2021/06/08 10:50:51;;;;;;;9.80;7.53;;;;;;;;;;5062993;28;20033;-60
2021/06/08 10:53:30;;;;;;;10.95;8.35;;;;;;;;;;5051634;28;20037;-60
2021/06/08 10:55:56;;;;;;;8.70;6.97;;;;;;;;;;5039697;28;20047;-60
2021/06/08 10:58:53;;;;;;;9.07;6.90;;;;;;;;;;5039577;28;20504;-60
2021/06/08 11:01:31;;;;;;;10.85;7.85;;;;;;;;;;5056636;28;20044;-60
2021/06/08 11:03:58;;;;;;;9.90;7.72;;;;;;;;;;5058726;28;20041;-60
2021/06/08 11:06:48;;;;;;;10.18;7.63;;;;;;;;;;5045990;28;20067;-61
2021/06/08 11:09:31;;;;;;;9.60;7.53;;;;;;;;;;5071842;28;20087;-60
2021/06/08 11:12:08;;;;;;;9.98;7.70;;;;;;;;;;5073093;28;20251;-60
2021/06/08 11:15:10;;;;;;;10.13;7.75;;;;;;;;;;5070511;28;20084;-60
2021/06/08 11:17:35;;;;;;;9.27;7.28;;;;;;;;;;5068408;28;20052;-60
2021/06/08 11:20:04;;;;;;;9.90;7.80;;;;;;;;;;5053017;28;20036;-60
2021/06/08 11:22:32;;;;;;;9.88;7.85;;;;;;;;;;5070904;28;20082;-60
2021/06/08 11:24:58;;;;;;;10.05;7.47;;;;;;;;;;5069339;28;20040;-60
2021/06/08 11:27:43;;;;;;;10.93;8.63;;;;;;;;;;5037049;28;20021;-60
2021/06/08 11:30:30;;;;;;;9.65;7.75;;;;;;;;;;5056528;28;20033;-60
2021/06/08 11:32:56;;;;;;;9.80;8.25;;;;;;;;;;5050178;28;20041;-60
2021/06/08 11:35:22;;;;;;;11.07;8.48;;;;;;;;;;5037892;28;20021;-60
2021/06/08 11:37:54;;;;;;;10.40;8.02;;;;;;;;;;5070282;28;20468;-60
2021/06/08 11:40:35;;;;;;;10.48;8.25;;;;;;;;;;5069478;28;20090;-60
2021/06/08 11:43:08;;;;;;;10.30;7.90;;;;;;;;;;5071181;28;20060;-60
2021/06/08 11:45:34;;;;;;;10.80;8.30;;;;;;;;;;5050477;28;20037;-60
2021/06/08 11:48:00;;;;;;;10.95;8.45;;;;;;;;;;5068745;28;20371;-60
2021/06/08 11:50:45;;;;;;;10.77;8.32;;;;;;;;;;5051015;28;20052;-60
2021/06/08 11:53:14;;;;;;;9.45;8.43;;;;;;;;;;5043379;28;20079;-60
2021/06/08 11:55:40;;;;;;;10.63;8.70;;;;;;;;;;5073957;28;20039;-60
2021/06/08 11:58:26;;;;;;;11.43;9.30;;;;;;;;;;5072837;28;20036;-60
2021/06/08 12:00:52;;;;;;;10.77;8.70;;;;;;;;;;5058590;28;20044;-60
2021/06/08 12:03:24;;;;;;;10.77;8.95;;;;;;;;;;5063662;28;20033;-61
2021/06/08 12:05:49;;;;;;;11.15;8.95;;;;;;;;;;5055776;28;20523;-61
2021/06/08 12:08:25;;;;;;;10.15;8.80;;;;;;;;;;5073526;28;20039;-60
2021/06/08 12:10:52;;;;;;;12.32;9.45;;;;;;;;;;5074587;28;20055;-60
2021/06/08 12:13:20;;;;;;;11.07;9.52;;;;;;;;;;5074060;28;20107;-60
2021/06/08 12:15:46;;;;;;;10.48;9.25;;;;;;;;;;5025696;28;20040;-60
2021/06/08 12:18:18;;;;;;;11.93;8.70;;;;;;;;;;5055418;28;20034;-60
2021/06/08 12:20:44;;;;;;;;;;;;;;;;;;5075793;28;20044;-60
2021/06/08 12:23:10;;;;;;;11.20;9.35;;;;;;;;;;5074022;28;19917;-60
2021/06/08 12:25:35;;;;;;;10.15;8.85;;;;;;;;;;5054523;28;20025;-60
2021/06/08 12:28:01;;;;;;;11.43;9.27;;;;;;;;;;5056905;28;20447;-60
2021/06/08 12:30:30;;;;;;;11.20;9.40;;;;;;;;;;5040788;28;20353;-60
2021/06/08 12:33:00;;;;;;;10.52;9.05;;;;;;;;;;5071743;28;20123;-60
2021/06/08 12:35:32;;;;;;;10.77;8.88;;;;;;;;;;5071992;28;20127;-60
2021/06/08 12:38:18;;;;;;;11.48;8.65;;;;;;;;;;5074683;28;20029;-60
2021/06/08 12:40:56;;;;;;;11.68;8.90;;;;;;;;;;5064495;28;20905;-60
2021/06/08 12:43:22;;;;;;;10.15;8.20;;;;;;;;;;5055613;28;20042;-60
2021/06/08 12:45:57;;;;;;;10.63;8.82;;;;;;;;;;5054235;28;20530;-60
2021/06/08 12:48:22;;;;;;;10.77;9.13;;;;;;;;;;5047528;28;20155;-60
2021/06/08 12:50:48;;;;;;;10.05;8.55;;;;;;;;;;5054432;28;20420;-60
2021/06/08 12:53:19;;;;;;;11.05;9.02;;;;;;;;;;5073334;28;20037;-60
2021/06/08 12:55:46;;;;;;;10.40;8.70;;;;;;;;;;5072099;28;20029;-60
2021/06/08 12:58:11;;;;;;;10.48;8.93;;;;;;;;;;5073304;28;20033;-60
2021/06/08 13:00:37;;;;;;;12.30;9.65;;;;;;;;;;5044273;28;20029;-60
2021/06/08 13:03:03;;;;;;;11.35;9.18;;;;;;;;;;5072683;28;20063;-60
2021/06/08 13:05:34;;;;;;;11.32;9.27;;;;;;;;;;5036934;28;20020;-60
2021/06/08 13:07:59;;;;;;;11.13;9.07;;;;;;;;;;5037342;28;20048;-60
2021/06/08 13:10:31;;;;;;;10.43;9.05;;;;;;;;;;5054566;28;20043;-60
2021/06/08 13:12:56;;;;;;;10.45;8.98;;;;;;;;;;5073100;28;20037;-60
2021/06/08 13:15:28;;;;;;;10.63;9.18;;;;;;;;;;5055730;28;20029;-61
2021/06/08 13:18:03;;;;;;;;;;;;;;;;;;5073063;28;20960;-60
2021/06/08 13:20:30;;;;;;;10.32;8.48;;;;;;;;;;5060129;28;19920;-60
2021/06/08 13:22:56;;;;;;;11.10;9.20;;;;;;;;;;5057324;28;20033;-60
2021/06/08 13:25:23;;;;;;;10.38;8.68;;;;;;;;;;5053494;28;20033;-60
2021/06/08 13:27:48;;;;;;;10.82;8.95;;;;;;;;;;5056205;28;20062;-60
2021/06/08 13:30:32;;;;;;;10.48;9.00;;;;;;;;;;5072980;28;20044;-61
2021/06/08 13:33:05;;;;;;;12.18;9.25;;;;;;;;;;5057056;28;20048;-60
2021/06/08 13:35:34;;;;;;;11.85;9.20;;;;;;;;;;5071565;28;20047;-61
2021/06/08 13:38:02;;;;;;;11.00;9.23;;;;;;;;;;5072920;28;20103;-60
2021/06/08 13:40:32;;;;;;;11.07;9.13;;;;;;;;;;5054204;28;20036;-60
2021/06/08 13:43:15;;;;;;;10.45;9.18;;;;;;;;;;5054158;28;20560;-60
2021/06/08 13:45:41;;;;;;;10.50;9.05;;;;;;;;;;5071505;28;20048;-60
2021/06/08 13:48:23;;;;;;;10.00;8.77;;;;;;;;;;5054293;28;20040;-60
2021/06/08 13:51:13;;;;;;;10.18;8.77;;;;;;;;;;5063817;28;20038;-60
2021/06/08 13:53:39;;;;;;;10.25;8.20;;;;;;;;;;5062672;28;20040;-59
2021/06/08 13:56:25;;;;;;;10.23;8.50;;;;;;;;;;5072007;28;20053;-60
2021/06/08 14:01:51;;;;;;;10.10;8.05;;;;;;;;;;5056076;28;20032;-60
2021/06/08 14:04:20;;;;;;;10.48;8.63;;;;;;;;;;5074076;28;20489;-60
2021/06/08 14:06:56;;;;;;;11.00;9.30;;;;;;;;;;5052255;28;20083;-60
2021/06/08 14:09:23;;;;;;;10.80;8.63;;;;;;;;;;5040734;28;20041;-61
2021/06/08 14:11:50;;;;;;;10.63;8.82;;;;;;;;;;5071798;28;20559;-61
2021/06/08 14:14:33;;;;;;;11.50;9.38;;;;;;;;;;5038859;28;20562;-61
2021/06/08 14:17:18;;;;;;;11.18;9.20;;;;;;;;;;5071886;28;20041;-60
2021/06/08 14:19:45;;;;;;;11.98;9.95;;;;;;;;;;5071307;28;20029;-60
2021/06/08 14:22:11;;;;;;;11.32;10.10;;;;;;;;;;5052762;28;20033;-60
2021/06/08 14:24:37;;;;;;;12.30;10.60;;;;;;;;;;5045814;28;20159;-60
2021/06/08 14:27:11;;;;;;;3.65;2.80;;;;;;;;;;5038090;28;20029;-60
2021/06/08 14:29:36;;;;;;;12.13;10.15;;;;;;;;;;5053676;28;20044;-60
2021/06/08 14:32:02;;;;;;;2.08;1.70;;;;;;;;;;5034986;28;20055;-60
2021/06/08 14:34:28;;;;;;;9.65;6.78;;;;;;;;;;5070233;28;20069;-60
2021/06/08 14:36:53;;;;;;;12.75;9.80;;;;;;;;;;5045234;28;20977;-60
2021/06/08 14:39:19;;;;;;;12.30;9.55;;;;;;;;;;5070979;28;20036;-59
2021/06/08 14:41:45;;;;;;;12.63;11.00;;;;;;;;;;5071564;28;20029;-59
2021/06/08 14:44:10;;;;;;;12.13;10.45;;;;;;;;;;5074074;28;20063;-60
2021/06/08 14:46:39;;;;;;;13.65;11.00;;;;;;;;;;5072020;28;20025;-60
2021/06/08 14:49:08;;;;;;;13.80;10.95;;;;;;;;;;5040546;28;20076;-60
2021/06/08 14:51:35;;;;;;;13.25;10.40;;;;;;;;;;5053940;28;20033;-60
2021/06/08 14:54:00;;;;;;;13.07;10.68;;;;;;;;;;5072628;28;20037;-60